createdAt,value
2024-05-09T00:00:00.190Z, 0
2024-05-09T00:02:00.154Z, 0
2024-05-09T00:04:00.178Z, 0
2024-05-09T00:06:00.379Z, 0
2024-05-09T00:08:00.199Z, 0
2024-05-09T00:10:00.164Z, 0
2024-05-09T00:12:00.548Z, 0
2024-05-09T00:14:00.204Z, 0
2024-05-09T00:16:00.124Z, 0
2024-05-09T00:18:00.394Z, 0
2024-05-09T00:20:00.270Z, 0
2024-05-09T00:22:00.164Z, 0
2024-05-09T00:24:00.176Z, 0
2024-05-09T00:26:00.180Z, 0
2024-05-09T00:28:00.124Z, 0
2024-05-09T00:30:00.178Z, 0
2024-05-09T00:32:00.373Z, 0
2024-05-09T00:34:00.291Z, 0
2024-05-09T00:36:00.344Z, 0
2024-05-09T00:38:00.333Z, 0
2024-05-09T00:40:00.228Z, 0
2024-05-09T00:42:00.143Z, 0
2024-05-09T00:44:00.217Z, 0
2024-05-09T00:46:00.131Z, 0
2024-05-09T00:48:00.634Z, 0
2024-05-09T00:50:00.251Z, 0
2024-05-09T00:52:00.282Z, 0
2024-05-09T00:54:00.147Z, 0
2024-05-09T00:56:00.181Z, 0
2024-05-09T00:58:00.161Z, 0
2024-05-09T01:00:00.143Z, 0
2024-05-09T01:02:00.890Z, 0
2024-05-09T01:04:00.197Z, 0
2024-05-09T01:06:00.475Z, 0
2024-05-09T01:08:00.190Z, 0
2024-05-09T01:10:00.203Z, 0
2024-05-09T01:12:00.256Z, 0
2024-05-09T01:14:00.182Z, 0
2024-05-09T01:16:00.122Z, 0
2024-05-09T01:18:00.412Z, 0
2024-05-09T01:20:00.286Z, 0
2024-05-09T01:22:00.173Z, 0
2024-05-09T01:24:00.505Z, 0
2024-05-09T01:26:00.193Z, 0
2024-05-09T01:28:00.118Z, 0
2024-05-09T01:30:00.256Z, 0
2024-05-09T01:32:00.215Z, 0
2024-05-09T01:34:00.247Z, 0
2024-05-09T01:36:00.370Z, 0
2024-05-09T01:38:00.152Z, 0
2024-05-09T01:40:00.148Z, 0
2024-05-09T01:42:00.183Z, 0
2024-05-09T01:44:00.267Z, 0
2024-05-09T01:46:00.127Z, 0
2024-05-09T01:48:00.579Z, 0
2024-05-09T01:50:00.279Z, 0
2024-05-09T01:52:00.135Z, 0
2024-05-09T01:54:00.229Z, 0
2024-05-09T01:56:00.164Z, 0
2024-05-09T01:58:00.149Z, 0
2024-05-09T02:00:00.238Z, 0
2024-05-09T02:02:00.270Z, 0
2024-05-09T02:04:00.349Z, 0
2024-05-09T02:06:00.176Z, 0
2024-05-09T02:08:00.144Z, 0
2024-05-09T02:10:00.223Z, 0
2024-05-09T02:12:00.283Z, 0
2024-05-09T02:14:00.349Z, 0
2024-05-09T02:16:00.121Z, 0
2024-05-09T02:18:00.329Z, 0
2024-05-09T02:20:00.260Z, 0
2024-05-09T02:22:00.131Z, 0
2024-05-09T02:24:00.139Z, 0
2024-05-09T02:26:00.151Z, 0
2024-05-09T02:28:00.188Z, 0
2024-05-09T02:30:00.355Z, 0
2024-05-09T02:32:00.262Z, 0
2024-05-09T02:34:00.270Z, 0
2024-05-09T02:36:00.180Z, 0
2024-05-09T02:38:00.264Z, 0
2024-05-09T02:40:00.171Z, 0
2024-05-09T02:42:00.139Z, 0
2024-05-09T02:44:00.219Z, 0
2024-05-09T02:46:00.134Z, 0
2024-05-09T02:48:01.006Z, 0
2024-05-09T02:50:00.205Z, 0
2024-05-09T02:52:00.152Z, 0
2024-05-09T02:54:00.238Z, 0
2024-05-09T02:56:00.232Z, 0
2024-05-09T02:58:00.143Z, 0
2024-05-09T03:00:00.167Z, 0
2024-05-09T03:02:00.199Z, 0
2024-05-09T03:04:00.325Z, 0
2024-05-09T03:06:00.146Z, 0
2024-05-09T03:08:00.279Z, 0
2024-05-09T03:10:00.136Z, 0
2024-05-09T03:12:00.239Z, 0
2024-05-09T03:14:00.135Z, 1
2024-05-09T03:16:00.113Z, 2
2024-05-09T03:18:00.447Z, 3
2024-05-09T03:20:00.222Z, 5
2024-05-09T03:22:00.123Z, 7
2024-05-09T03:24:00.166Z, 10
2024-05-09T03:26:00.138Z, 15
2024-05-09T03:28:00.143Z, 20
2024-05-09T03:30:00.180Z, 28
2024-05-09T03:32:00.244Z, 37
2024-05-09T03:34:00.341Z, 50
2024-05-09T03:36:00.145Z, 65
2024-05-09T03:38:00.187Z, 83
2024-05-09T03:40:00.233Z, 106
2024-05-09T03:42:00.149Z, 130
2024-05-09T03:44:00.149Z, 161
2024-05-09T03:46:00.120Z, 196
2024-05-09T03:48:00.320Z, 237
2024-05-09T03:50:00.245Z, 280
2024-05-09T03:52:00.126Z, 333
2024-05-09T03:54:00.147Z, 385
2024-05-09T03:56:00.404Z, 454
2024-05-09T03:58:00.254Z, 519
2024-05-09T04:00:00.244Z, 597
2024-05-09T04:02:00.230Z, 676
2024-05-09T04:04:00.166Z, 768
2024-05-09T04:06:00.236Z, 853
2024-05-09T04:08:00.211Z, 956
2024-05-09T04:10:00.239Z, 1049
2024-05-09T04:12:00.310Z, 1148
2024-05-09T04:14:00.187Z, 1238
2024-05-09T04:16:00.128Z, 1326
2024-05-09T04:18:00.870Z, 1404
2024-05-09T04:20:00.284Z, 1507
2024-05-09T04:22:00.138Z, 1594
2024-05-09T04:24:00.135Z, 1744
2024-05-09T04:26:00.145Z, 1873
2024-05-09T04:28:00.152Z, 2068
2024-05-09T04:30:00.245Z, 2194
2024-05-09T04:32:00.301Z, 2400
2024-05-09T04:34:00.355Z, 2506
2024-05-09T04:36:00.141Z, 2615
2024-05-09T04:38:00.331Z, 2710
2024-05-09T04:40:00.137Z, 2825
2024-05-09T04:42:00.133Z, 2973
2024-05-09T04:44:00.145Z, 3134
2024-05-09T04:46:00.137Z, 3289
2024-05-09T04:48:00.801Z, 3393
2024-05-09T04:50:00.210Z, 3560
2024-05-09T04:52:00.128Z, 3714
2024-05-09T04:54:00.148Z, 3843
2024-05-09T04:56:00.166Z, 4064
2024-05-09T04:58:00.164Z, 4262
2024-05-09T05:00:00.148Z, 4386
2024-05-09T05:02:00.182Z, 4357
2024-05-09T05:04:00.273Z, 4521
2024-05-09T05:06:00.179Z, 4665
2024-05-09T05:08:00.194Z, 4821
2024-05-09T05:10:00.186Z, 4983
2024-05-09T05:12:00.273Z, 5328
2024-05-09T05:14:00.168Z, 5464
2024-05-09T05:16:00.136Z, 5722
2024-05-09T05:18:00.351Z, 5877
2024-05-09T05:20:00.775Z, 6164
2024-05-09T05:22:00.139Z, 6550
2024-05-09T05:24:00.145Z, 6680
2024-05-09T05:26:00.156Z, 6844
2024-05-09T05:28:00.152Z, 6774
2024-05-09T05:30:00.222Z, 6929
2024-05-09T05:32:00.257Z, 6855
2024-05-09T05:34:00.176Z, 6931
2024-05-09T05:36:00.140Z, 7269
2024-05-09T05:38:00.201Z, 8706
2024-05-09T05:40:00.164Z, 8196
2024-05-09T05:42:00.139Z, 8006
2024-05-09T05:44:00.263Z, 7539
2024-05-09T05:46:00.120Z, 7702
2024-05-09T05:48:00.496Z, 8599
2024-05-09T05:50:00.198Z, 8706
2024-05-09T05:52:00.123Z, 8226
2024-05-09T05:54:00.150Z, 9181
2024-05-09T05:56:00.194Z, 9487
2024-05-09T05:58:00.122Z, 8796
2024-05-09T06:00:00.191Z, 8478
2024-05-09T06:02:00.166Z, 8245
2024-05-09T06:04:00.222Z, 8673
2024-05-09T06:06:00.256Z, 9609
2024-05-09T06:08:00.324Z, 10757
2024-05-09T06:10:00.185Z, 11161
2024-05-09T06:12:00.287Z, 11250
2024-05-09T06:14:00.130Z, 11077
2024-05-09T06:16:00.111Z, 12020
2024-05-09T06:18:00.484Z, 12269
2024-05-09T06:20:00.262Z, 12690
2024-05-09T06:22:00.132Z, 13811
2024-05-09T06:24:00.451Z, 13372
2024-05-09T06:26:00.492Z, 12981
2024-05-09T06:28:00.234Z, 12787
2024-05-09T06:30:00.186Z, 13142
2024-05-09T06:32:00.525Z, 12755
2024-05-09T06:34:00.256Z, 13151
2024-05-09T06:36:00.130Z, 13480
2024-05-09T06:38:00.294Z, 13145
2024-05-09T06:40:00.147Z, 13620
2024-05-09T06:42:00.142Z, 16255
2024-05-09T06:44:00.208Z, 15960
2024-05-09T06:46:00.135Z, 16316
2024-05-09T06:48:00.448Z, 15945
2024-05-09T06:50:00.203Z, 19092
2024-05-09T06:52:00.127Z, 21005
2024-05-09T06:54:00.272Z, 20099
2024-05-09T06:56:00.151Z, 18590
2024-05-09T06:58:00.118Z, 25243
2024-05-09T07:00:00.199Z, 26124
2024-05-09T07:02:00.147Z, 34246
2024-05-09T07:04:00.178Z, 25877
2024-05-09T07:06:00.164Z, 21396
2024-05-09T07:08:00.258Z, 23002
2024-05-09T07:10:00.177Z, 20819
2024-05-09T07:12:00.234Z, 19935
2024-05-09T07:14:00.153Z, 20474
2024-05-09T07:16:00.114Z, 38200
2024-05-09T07:18:00.254Z, 29584
2024-05-09T07:20:00.281Z, 40848
2024-05-09T07:22:00.165Z, 44692
2024-05-09T07:24:00.138Z, 45350
2024-05-09T07:26:00.145Z, 41144
2024-05-09T07:28:00.131Z, 39145
2024-05-09T07:30:00.171Z, 45304
2024-05-09T07:32:00.166Z, 47494
2024-05-09T07:34:00.396Z, 47551
2024-05-09T07:36:00.191Z, 51886
2024-05-09T07:38:00.214Z, 54612
2024-05-09T07:40:00.196Z, 54612
2024-05-09T07:42:00.128Z, 54612
2024-05-09T07:44:00.159Z, 54612
2024-05-09T07:46:37.788Z, 54612
2024-05-09T07:51:47.365Z, 27821
2024-05-09T07:53:22.196Z, 24157
2024-05-09T07:54:01.378Z, 23155
2024-05-09T07:56:00.300Z, 23070
2024-05-09T07:58:00.170Z, 23184
2024-05-09T08:00:00.226Z, 24025
2024-05-09T08:02:00.337Z, 23063
2024-05-09T08:04:00.284Z, 23540
2024-05-09T08:06:00.173Z, 23270
2024-05-09T08:08:00.197Z, 23654
2024-05-09T08:10:00.230Z, 23955
2024-05-09T09:40:00.240Z, 54188
2024-05-09T09:42:00.115Z, 47764
2024-05-09T09:44:00.126Z, 43570
2024-05-09T09:46:00.251Z, 48252
2024-05-09T09:48:00.203Z, 49761
2024-05-09T09:50:00.160Z, 53388
2024-05-09T09:52:00.178Z, 54612
2024-05-09T09:54:00.158Z, 54612
2024-05-09T09:56:00.124Z, 54612
2024-05-09T09:58:00.142Z, 43095
2024-05-09T10:00:00.185Z, 40786
2024-05-09T10:02:00.349Z, 47802
2024-05-09T10:04:00.386Z, 54612
2024-05-09T10:06:00.183Z, 54612
2024-05-09T10:08:00.115Z, 54612
2024-05-09T10:10:00.202Z, 52570
2024-05-09T10:12:03.278Z, 54441
2024-05-09T10:16:00.215Z, 47536
2024-05-09T10:18:00.218Z, 53441
2024-05-09T10:20:00.240Z, 54612
2024-05-09T10:22:00.206Z, 54612
2024-05-09T10:24:00.132Z, 52882
2024-05-09T10:26:00.196Z, 54612
2024-05-09T10:28:00.138Z, 54612
2024-05-09T10:30:00.169Z, 54612
2024-05-09T10:32:00.173Z, 54612
2024-05-09T10:34:00.407Z, 54612
2024-05-09T10:36:00.160Z, 54612
2024-05-09T10:38:00.118Z, 48793
2024-05-09T10:40:00.243Z, 54612
2024-05-09T10:42:00.142Z, 54612
2024-05-09T10:44:00.122Z, 54612
2024-05-09T10:46:00.269Z, 54612
2024-05-09T10:48:00.316Z, 54612
2024-05-09T10:50:00.253Z, 54612
2024-05-09T10:52:00.163Z, 54612
2024-05-09T10:54:00.144Z, 54612
2024-05-09T10:56:00.127Z, 54612
2024-05-09T10:58:00.268Z, 54612
2024-05-09T11:00:00.192Z, 54612
2024-05-09T11:02:00.263Z, 54612
2024-05-09T11:04:00.339Z, 54612
2024-05-09T11:06:00.148Z, 54612
2024-05-09T11:08:00.133Z, 54612
2024-05-09T11:10:00.209Z, 54612
2024-05-09T11:12:00.176Z, 54612
2024-05-09T11:14:00.152Z, 54612
2024-05-09T11:16:00.598Z, 54612
2024-05-09T11:18:00.210Z, 54612
2024-05-09T11:20:00.203Z, 54612
2024-05-09T11:22:00.129Z, 54612
2024-05-09T11:24:00.132Z, 54612
2024-05-09T11:26:00.143Z, 54612
2024-05-09T11:28:00.216Z, 54612
2024-05-09T11:30:00.229Z, 54612
2024-05-09T11:32:00.138Z, 54612
2024-05-09T11:34:00.202Z, 54612
2024-05-09T11:36:00.131Z, 54612
2024-05-09T11:38:00.142Z, 54612
2024-05-09T11:40:00.240Z, 54612
2024-05-09T11:42:00.133Z, 54612
2024-05-09T11:44:00.112Z, 54612
2024-05-09T11:46:00.242Z, 54612
2024-05-09T11:48:00.288Z, 54612
2024-05-09T11:50:00.249Z, 54612
2024-05-09T11:52:00.228Z, 54612
2024-05-09T11:54:00.204Z, 54612
2024-05-09T11:56:00.118Z, 54612
2024-05-09T12:00:00.186Z, 54612
2024-05-09T12:02:00.232Z, 54612
2024-05-09T12:04:00.500Z, 54612
2024-05-09T12:06:00.501Z, 54612
2024-05-09T12:08:00.132Z, 54612
2024-05-09T12:10:00.198Z, 54612
2024-05-09T12:12:00.142Z, 54612
2024-05-09T12:14:00.128Z, 54612
2024-05-09T12:16:00.189Z, 54612
2024-05-09T12:18:02.944Z, 54612
2024-05-09T12:20:00.189Z, 54612
2024-05-09T12:22:00.218Z, 54612
2024-05-09T12:24:00.143Z, 54612
2024-05-09T12:26:00.218Z, 54612
2024-05-09T12:28:00.702Z, 54612
2024-05-09T12:30:00.230Z, 54612
2024-05-09T12:32:00.214Z, 54612
2024-05-09T12:34:00.301Z, 54612
2024-05-09T12:36:00.203Z, 54612
2024-05-09T12:38:00.330Z, 54612
2024-05-09T12:40:00.247Z, 54612
2024-05-09T12:42:00.204Z, 54612
2024-05-09T12:44:00.155Z, 54612
2024-05-09T12:46:00.222Z, 54612
2024-05-09T12:48:00.366Z, 54612
2024-05-09T12:50:00.222Z, 54612
2024-05-09T12:52:00.181Z, 54612
2024-05-09T12:54:00.159Z, 54612
2024-05-09T12:56:02.475Z, 54612
2024-05-09T12:58:00.188Z, 54612
2024-05-09T13:00:00.171Z, 54612
2024-05-09T13:02:01.334Z, 54612
2024-05-09T13:04:00.605Z, 54612
2024-05-09T13:06:00.164Z, 54612
2024-05-09T13:08:00.163Z, 54612
2024-05-09T13:10:00.456Z, 54612
2024-05-09T13:12:00.188Z, 54612
2024-05-09T13:14:00.152Z, 54612
2024-05-09T13:16:00.215Z, 54612
2024-05-09T13:18:02.868Z, 54612
2024-05-09T13:20:00.163Z, 54612
2024-05-09T13:22:00.193Z, 54612
2024-05-09T13:24:00.518Z, 54612
2024-05-09T13:26:00.142Z, 54612
2024-05-09T13:28:00.179Z, 54612
2024-05-09T13:30:00.167Z, 54612
2024-05-09T13:32:00.213Z, 54612
2024-05-09T13:34:00.302Z, 53170
2024-05-09T13:36:00.171Z, 52768
2024-05-09T13:38:00.120Z, 49370
2024-05-09T13:40:00.204Z, 48705
2024-05-09T13:42:00.130Z, 49565
2024-05-09T13:44:00.119Z, 50059
2024-05-09T13:46:00.584Z, 50851
2024-05-09T13:48:00.332Z, 51146
2024-05-09T13:50:00.168Z, 51854
2024-05-09T13:52:00.191Z, 50996
2024-05-09T13:54:00.152Z, 49599
2024-05-09T13:56:00.175Z, 47354
2024-05-09T13:58:00.283Z, 51476
2024-05-09T14:00:00.343Z, 51545
2024-05-09T14:02:00.152Z, 51107
2024-05-09T14:04:00.290Z, 49050
2024-05-09T14:06:00.253Z, 48296
2024-05-09T14:08:00.119Z, 40005
2024-05-09T14:10:00.379Z, 36831
2024-05-09T14:12:00.139Z, 44974
2024-05-09T14:14:00.169Z, 46535
2024-05-09T14:16:00.334Z, 46288
2024-05-09T14:18:00.176Z, 44966
2024-05-09T14:20:00.169Z, 43114
2024-05-09T14:22:00.210Z, 42720
2024-05-09T14:24:00.133Z, 42198
2024-05-09T14:26:00.158Z, 41470
2024-05-09T14:28:00.293Z, 39596
2024-05-09T14:30:00.244Z, 41120
2024-05-09T14:32:00.158Z, 39663
2024-05-09T14:34:00.415Z, 37655
2024-05-09T14:36:00.132Z, 36858
2024-05-09T14:38:00.108Z, 34414
2024-05-09T14:40:00.206Z, 33320
2024-05-09T14:42:00.167Z, 33248
2024-05-09T14:44:00.128Z, 32544
2024-05-09T14:46:00.203Z, 32534
2024-05-09T14:48:00.320Z, 32211
2024-05-09T14:50:00.851Z, 32311
2024-05-09T14:52:00.165Z, 27640
2024-05-09T14:54:00.136Z, 31484
2024-05-09T14:56:00.173Z, 30942
2024-05-09T14:58:00.423Z, 27946
2024-05-09T15:00:00.195Z, 28952
2024-05-09T15:02:00.306Z, 28790
2024-05-09T15:04:00.310Z, 27016
2024-05-09T15:06:00.223Z, 25982
2024-05-09T15:08:00.225Z, 26810
2024-05-09T15:10:00.218Z, 27205
2024-05-09T15:12:00.161Z, 26955
2024-05-09T15:14:00.125Z, 26986
2024-05-09T15:16:00.180Z, 26924
2024-05-09T15:18:00.361Z, 25346
2024-05-09T15:20:00.255Z, 27707
2024-05-09T15:22:00.168Z, 25618
2024-05-09T15:24:00.132Z, 26045
2024-05-09T15:26:00.119Z, 25570
2024-05-09T15:28:00.221Z, 25640
2024-05-09T15:30:00.192Z, 25542
2024-05-09T15:32:00.206Z, 25641
2024-05-09T15:34:00.337Z, 29745
2024-05-09T15:36:00.135Z, 30335
2024-05-09T15:38:00.148Z, 27860
2024-05-09T15:40:00.275Z, 25027
2024-05-09T15:42:00.147Z, 25230
2024-05-09T15:44:00.465Z, 24733
2024-05-09T15:46:00.223Z, 24037
2024-05-09T15:48:00.390Z, 23909
2024-05-09T15:50:00.300Z, 23244
2024-05-09T15:52:00.188Z, 21735
2024-05-09T15:54:00.177Z, 21990
2024-05-09T15:56:00.138Z, 21124
2024-05-09T15:58:00.152Z, 19448
2024-05-09T16:00:00.176Z, 21293
2024-05-09T16:02:00.211Z, 18480
2024-05-09T16:04:00.472Z, 19009
2024-05-09T16:06:00.217Z, 25991
2024-05-09T16:08:00.298Z, 22930
2024-05-09T16:10:00.237Z, 21158
2024-05-09T16:12:00.220Z, 20487
2024-05-09T16:14:00.121Z, 19287
2024-05-09T16:16:00.195Z, 19461
2024-05-09T16:18:00.313Z, 21600
2024-05-09T16:20:00.276Z, 23193
2024-05-09T16:22:00.216Z, 22016
2024-05-09T16:24:00.182Z, 20874
2024-05-09T16:26:00.120Z, 19816
2024-05-09T16:28:00.307Z, 19918
2024-05-09T16:30:00.218Z, 19104
2024-05-09T16:32:00.178Z, 17441
2024-05-09T16:34:00.395Z, 17800
2024-05-09T16:36:00.141Z, 18255
2024-05-09T16:38:00.157Z, 17977
2024-05-09T16:40:00.218Z, 19186
2024-05-09T16:42:00.137Z, 18803
2024-05-09T16:44:00.121Z, 18445
2024-05-09T16:46:00.132Z, 18695
2024-05-09T16:48:00.522Z, 19512
2024-05-09T16:50:00.179Z, 20027
2024-05-09T16:52:00.269Z, 22746
2024-05-09T16:54:00.180Z, 24265
2024-05-09T16:56:00.125Z, 29475
2024-05-09T16:58:00.253Z, 30096
2024-05-09T17:00:00.174Z, 17527
2024-05-09T17:02:00.422Z, 14621
2024-05-09T17:04:00.345Z, 13715
2024-05-09T17:06:00.207Z, 13248
2024-05-09T17:08:00.116Z, 13003
2024-05-09T17:10:00.316Z, 12081
2024-05-09T17:12:00.187Z, 12168
2024-05-09T17:14:00.140Z, 11343
2024-05-09T17:16:00.151Z, 11277
2024-05-09T17:18:00.289Z, 11088
2024-05-09T17:20:00.223Z, 10826
2024-05-09T17:22:00.191Z, 10348
2024-05-09T17:24:00.131Z, 9960
2024-05-09T17:26:00.343Z, 9823
2024-05-09T17:28:00.164Z, 9353
2024-05-09T17:30:00.210Z, 8060
2024-05-09T17:32:00.133Z, 6425
2024-05-09T17:34:00.351Z, 6595
2024-05-09T17:36:00.133Z, 6350
2024-05-09T17:38:00.182Z, 5903
2024-05-09T17:40:00.234Z, 5438
2024-05-09T17:42:00.144Z, 5682
2024-05-09T17:44:00.155Z, 5054
2024-05-09T17:46:00.221Z, 5065
2024-05-09T17:48:00.454Z, 4431
2024-05-09T17:50:00.246Z, 3192
2024-05-09T17:52:00.176Z, 2805
2024-05-09T17:54:00.132Z, 2405
2024-05-09T17:56:00.127Z, 2156
2024-05-09T17:58:00.265Z, 1988
2024-05-09T18:00:00.200Z, 1880
2024-05-09T18:02:00.298Z, 1787
2024-05-09T18:04:00.743Z, 1658
2024-05-09T18:06:00.207Z, 1564
2024-05-09T18:08:00.142Z, 1485
2024-05-09T18:10:00.315Z, 1408
2024-05-09T18:12:00.264Z, 1337
2024-05-09T18:14:00.116Z, 1271
2024-05-09T18:16:00.133Z, 1210
2024-05-09T18:18:00.343Z, 1154
2024-05-09T18:20:00.378Z, 1102
2024-05-09T18:22:00.157Z, 1050
2024-05-09T18:24:00.441Z, 995
2024-05-09T18:26:00.156Z, 944
2024-05-09T18:28:00.150Z, 895
2024-05-09T18:30:00.212Z, 849
2024-05-09T18:32:00.199Z, 801
2024-05-09T18:34:00.221Z, 753
2024-05-09T18:36:00.144Z, 705
2024-05-09T18:38:00.122Z, 658
2024-05-09T18:40:00.250Z, 611
2024-05-09T18:42:00.178Z, 563
2024-05-09T18:44:00.151Z, 516
2024-05-09T18:46:00.179Z, 475
2024-05-09T18:48:00.421Z, 440
2024-05-09T18:50:00.292Z, 404
2024-05-09T18:52:00.194Z, 363
2024-05-09T18:54:00.135Z, 320
2024-05-09T18:56:00.143Z, 284
2024-05-09T18:58:00.355Z, 249
2024-05-09T19:00:00.153Z, 215
2024-05-09T19:02:00.310Z, 185
2024-05-09T19:04:00.275Z, 156
2024-05-09T19:06:00.222Z, 130
2024-05-09T19:08:00.447Z, 106
2024-05-09T19:10:00.325Z, 86
2024-05-09T19:12:00.230Z, 69
2024-05-09T19:14:00.146Z, 54
2024-05-09T19:16:00.187Z, 41
2024-05-09T19:18:00.307Z, 30
2024-05-09T19:20:00.300Z, 22
2024-05-09T19:22:00.192Z, 15
2024-05-09T19:24:00.140Z, 11
2024-05-09T19:26:00.117Z, 7
2024-05-09T19:28:00.187Z, 5
2024-05-09T19:30:00.193Z, 3
2024-05-09T19:32:00.130Z, 2
2024-05-09T19:34:00.219Z, 1
2024-05-09T19:36:00.135Z, 0
2024-05-09T19:38:00.194Z, 0
2024-05-09T19:40:00.242Z, 0
2024-05-09T19:42:00.176Z, 0
2024-05-09T19:44:00.166Z, 0
2024-05-09T19:46:00.154Z, 0
2024-05-09T19:48:00.332Z, 0
2024-05-09T19:50:00.252Z, 0
2024-05-09T19:54:00.137Z, 0
2024-05-09T19:56:00.113Z, 0
2024-05-09T19:58:02.612Z, 0
2024-05-09T20:00:00.256Z, 0
2024-05-09T20:02:00.333Z, 0
2024-05-09T20:04:00.507Z, 0
2024-05-09T20:06:00.184Z, 0
2024-05-09T20:08:00.176Z, 0
2024-05-09T20:10:00.656Z, 0
2024-05-09T20:12:00.172Z, 0
2024-05-09T20:14:00.119Z, 0
2024-05-09T20:16:00.192Z, 0
2024-05-09T20:18:00.238Z, 0
2024-05-09T20:20:00.399Z, 0
2024-05-09T20:22:00.170Z, 0
2024-05-09T20:24:00.200Z, 0
2024-05-09T20:26:00.152Z, 0
2024-05-09T20:28:00.258Z, 0
2024-05-09T20:30:00.199Z, 0
2024-05-09T20:32:00.234Z, 0
2024-05-09T20:34:00.138Z, 0
2024-05-09T20:36:02.096Z, 0
2024-05-09T20:38:00.160Z, 0
2024-05-09T20:40:00.285Z, 0
2024-05-09T20:42:00.152Z, 0
2024-05-09T20:44:00.123Z, 0
2024-05-09T20:46:00.146Z, 0
2024-05-09T20:48:00.348Z, 0
2024-05-09T20:50:00.247Z, 0
2024-05-09T20:52:00.268Z, 0
2024-05-09T20:54:00.148Z, 0
2024-05-09T20:56:00.141Z, 0
2024-05-09T20:58:00.285Z, 0
2024-05-09T21:00:00.244Z, 0
2024-05-09T21:02:00.320Z, 0
2024-05-09T21:04:00.461Z, 0
2024-05-09T21:06:00.173Z, 0
2024-05-09T21:08:00.118Z, 0
2024-05-09T21:10:00.259Z, 0
2024-05-09T21:12:00.151Z, 0
2024-05-09T21:14:00.124Z, 0
2024-05-09T21:16:00.197Z, 0
2024-05-09T21:18:00.264Z, 0
2024-05-09T21:20:00.146Z, 0
2024-05-09T21:22:00.292Z, 0
2024-05-09T21:24:00.152Z, 0
2024-05-09T21:26:00.125Z, 0
2024-05-09T21:28:00.348Z, 0
2024-05-09T21:30:00.162Z, 0
2024-05-09T21:32:00.135Z, 0
2024-05-09T21:34:00.391Z, 0
2024-05-09T21:36:00.150Z, 0
2024-05-09T21:38:00.142Z, 0
2024-05-09T21:40:00.273Z, 0
2024-05-09T21:42:00.162Z, 0
2024-05-09T21:44:00.135Z, 0
2024-05-09T21:46:00.160Z, 0
2024-05-09T21:48:00.313Z, 0
2024-05-09T21:50:00.158Z, 0
2024-05-09T21:52:00.169Z, 0
2024-05-09T21:54:00.130Z, 0
2024-05-09T21:56:00.390Z, 0
2024-05-09T21:58:00.215Z, 0
2024-05-09T22:00:00.247Z, 0
2024-05-09T22:02:00.423Z, 0
2024-05-09T22:04:00.377Z, 0
2024-05-09T22:06:00.169Z, 0
2024-05-09T22:08:00.158Z, 0
2024-05-09T22:10:00.322Z, 0
2024-05-09T22:12:00.558Z, 0
2024-05-09T22:14:00.136Z, 0
2024-05-09T22:16:00.172Z, 0
2024-05-09T22:18:00.275Z, 0
2024-05-09T22:20:00.161Z, 0
2024-05-09T22:22:00.145Z, 0
2024-05-09T22:24:00.128Z, 0
2024-05-09T22:26:00.136Z, 0
2024-05-09T22:28:00.347Z, 0
2024-05-09T22:30:00.168Z, 0
2024-05-09T22:32:00.115Z, 0
2024-05-09T22:34:00.354Z, 0
2024-05-09T22:36:00.168Z, 0
2024-05-09T22:38:00.131Z, 0
2024-05-09T22:40:01.332Z, 0
2024-05-09T22:42:00.129Z, 0
2024-05-09T22:44:00.114Z, 0
2024-05-09T22:46:00.163Z, 0
2024-05-09T22:48:00.610Z, 0
2024-05-09T22:50:00.151Z, 0
2024-05-09T22:52:00.160Z, 0
2024-05-09T22:54:00.141Z, 0
2024-05-09T22:56:00.116Z, 0
2024-05-09T22:58:00.235Z, 0
2024-05-09T23:00:00.170Z, 0
2024-05-09T23:02:00.351Z, 0
2024-05-09T23:04:00.348Z, 0
2024-05-09T23:06:00.125Z, 0
2024-05-09T23:08:00.112Z, 0
2024-05-09T23:10:00.214Z, 0
2024-05-09T23:12:00.239Z, 0
2024-05-09T23:14:00.126Z, 0
2024-05-09T23:16:00.171Z, 0
2024-05-09T23:18:00.344Z, 0
2024-05-09T23:20:00.180Z, 0
2024-05-09T23:22:00.148Z, 0
2024-05-09T23:24:00.120Z, 0
2024-05-09T23:26:00.115Z, 0
2024-05-09T23:28:00.263Z, 0
2024-05-09T23:30:00.198Z, 0
2024-05-09T23:32:00.368Z, 0
2024-05-09T23:34:00.290Z, 0
2024-05-09T23:36:00.154Z, 0
2024-05-09T23:38:00.140Z, 0
2024-05-09T23:40:00.188Z, 0
2024-05-09T23:42:00.126Z, 0
2024-05-09T23:44:00.103Z, 0
2024-05-09T23:46:00.111Z, 0
2024-05-09T23:48:00.807Z, 0
2024-05-09T23:50:00.160Z, 0
2024-05-09T23:52:00.220Z, 0
2024-05-09T23:54:00.127Z, 0
2024-05-09T23:56:00.117Z, 0
2024-05-09T23:58:00.631Z, 0
